createdAt,value
2017-06-20T00:02:01.829Z,63.30
2017-06-20T00:04:30.156Z,63.80
2017-06-20T00:06:58.446Z,63.90
2017-06-20T00:09:26.732Z,64.00
2017-06-20T00:11:55.040Z,64.00
2017-06-20T00:14:23.327Z,63.50
2017-06-20T00:16:51.629Z,63.30
2017-06-20T00:19:19.916Z,63.40
2017-06-20T00:21:48.229Z,63.60
2017-06-20T00:24:16.520Z,63.90
2017-06-20T00:26:44.848Z,64.20
2017-06-20T00:29:12.377Z,64.20
2017-06-20T00:31:40.693Z,64.70
2017-06-20T00:34:09.024Z,64.70
2017-06-20T00:36:37.308Z,64.90
2017-06-20T00:39:05.616Z,64.80
2017-06-20T00:41:33.900Z,64.70
2017-06-20T00:44:02.209Z,64.80
2017-06-20T00:46:30.493Z,65.00
2017-06-20T00:48:58.817Z,65.50
2017-06-20T00:51:27.121Z,65.80
2017-06-20T00:53:55.412Z,65.90
2017-06-20T00:56:23.725Z,66.00
2017-06-20T00:58:52.014Z,65.90
2017-06-20T01:01:20.325Z,66.20
2017-06-20T01:03:48.613Z,66.50
2017-06-20T01:06:16.921Z,66.70
2017-06-20T01:08:45.217Z,66.90
2017-06-20T01:11:13.548Z,67.20
2017-06-20T01:13:41.836Z,66.50
2017-06-20T01:16:10.139Z,67.30
2017-06-20T01:18:38.453Z,67.10
2017-06-20T01:21:06.740Z,67.30
2017-06-20T01:23:35.048Z,67.50
2017-06-20T01:26:03.336Z,68.10
2017-06-20T01:28:31.645Z,67.60
2017-06-20T01:30:59.953Z,67.60
2017-06-20T01:33:28.274Z,67.60
2017-06-20T01:35:56.565Z,67.60
2017-06-20T01:38:24.848Z,67.80
2017-06-20T01:40:53.161Z,68.00
2017-06-20T01:43:21.440Z,67.90
2017-06-20T01:45:49.749Z,67.80
2017-06-20T01:48:18.039Z,67.70
2017-06-20T01:50:46.352Z,67.80
2017-06-20T01:53:14.650Z,68.10
2017-06-20T01:55:42.973Z,68.00
2017-06-20T01:58:11.268Z,68.30
2017-06-20T02:00:39.552Z,68.30
2017-06-20T02:03:07.865Z,68.50
2017-06-20T02:05:36.153Z,68.70
2017-06-20T02:08:03.696Z,68.70
2017-06-20T02:10:31.987Z,69.10
2017-06-20T02:13:00.296Z,69.40
2017-06-20T02:15:28.592Z,69.40
2017-06-20T02:17:56.913Z,69.50
2017-06-20T02:20:25.197Z,69.30
2017-06-20T02:22:53.513Z,69.30
2017-06-20T02:25:21.796Z,69.70
2017-06-20T02:27:50.081Z,69.90
2017-06-20T02:30:18.397Z,69.90
2017-06-20T02:32:46.692Z,69.80
2017-06-20T02:35:14.997Z,69.80
2017-06-20T02:37:43.292Z,69.80
2017-06-20T02:40:11.609Z,69.70
2017-06-20T02:42:39.897Z,70.20
2017-06-20T02:45:08.211Z,70.20
2017-06-20T02:47:36.501Z,70.40
2017-06-20T02:50:04.814Z,70.50
2017-06-20T02:52:33.100Z,70.50
2017-06-20T02:55:01.388Z,70.40
2017-06-20T02:57:29.701Z,70.50
2017-06-20T02:59:58.009Z,70.40
2017-06-20T03:02:26.320Z,70.50
2017-06-20T03:04:54.609Z,70.40
2017-06-20T03:07:22.913Z,70.40
2017-06-20T03:09:51.206Z,70.40
2017-06-20T03:12:19.525Z,70.60
2017-06-20T03:14:47.814Z,70.50
2017-06-20T03:17:16.108Z,70.50
2017-06-20T03:19:44.414Z,70.70
2017-06-20T03:22:12.706Z,70.70
2017-06-20T03:24:41.037Z,70.50
2017-06-20T03:27:09.329Z,70.60
2017-06-20T03:29:37.632Z,70.80
2017-06-20T03:32:05.920Z,71.00
2017-06-20T03:34:34.233Z,71.10
2017-06-20T03:37:02.517Z,71.10
2017-06-20T03:39:30.808Z,71.00
2017-06-20T03:41:59.125Z,71.10
2017-06-20T03:44:27.417Z,71.40
2017-06-20T03:46:55.729Z,71.70
2017-06-20T03:49:24.016Z,71.20
2017-06-20T03:51:52.321Z,71.10
2017-06-20T03:54:20.608Z,72.00
2017-06-20T03:56:48.921Z,71.10
2017-06-20T03:59:17.207Z,71.20
2017-06-20T04:01:45.516Z,71.00
2017-06-20T04:04:13.810Z,70.40
2017-06-20T04:06:42.113Z,68.40
2017-06-20T04:09:10.424Z,65.80
2017-06-20T04:11:38.708Z,62.60
2017-06-20T04:14:07.016Z,59.60
2017-06-20T04:16:35.304Z,58.00
2017-06-20T04:19:03.618Z,56.80
2017-06-20T04:21:37.473Z,55.50
2017-06-20T04:24:05.792Z,55.10
2017-06-20T04:26:34.084Z,55.80
2017-06-20T04:29:02.401Z,56.20
2017-06-20T04:31:30.694Z,56.90
2017-06-20T04:33:58.981Z,56.20
2017-06-20T04:36:27.292Z,55.10
2017-06-20T04:38:55.580Z,53.70
2017-06-20T04:41:23.888Z,52.40
2017-06-20T04:43:52.177Z,51.40
2017-06-20T04:46:20.484Z,50.50
2017-06-20T04:48:48.774Z,49.70
2017-06-20T04:51:17.085Z,49.30
2017-06-20T04:53:45.425Z,48.90
2017-06-20T04:56:13.749Z,48.20
2017-06-20T04:58:42.040Z,47.70
2017-06-20T05:01:10.337Z,47.30
2017-06-20T05:03:38.650Z,47.30
2017-06-20T05:06:06.942Z,47.10
2017-06-20T05:08:35.252Z,47.00
2017-06-20T05:11:03.541Z,47.00
2017-06-20T05:13:31.849Z,47.20
2017-06-20T05:16:00.141Z,47.60
2017-06-20T05:18:28.454Z,47.90
2017-06-20T05:20:56.764Z,48.60
2017-06-20T05:23:25.047Z,49.40
2017-06-20T05:25:53.362Z,50.20
2017-06-20T05:28:21.649Z,51.00
2017-06-20T05:30:49.985Z,51.60
2017-06-20T05:33:18.305Z,52.10
2017-06-20T05:35:46.613Z,52.50
2017-06-20T05:38:14.915Z,52.40
2017-06-20T05:40:42.474Z,52.40
2017-06-20T05:43:10.760Z,52.30
2017-06-20T05:45:39.053Z,52.40
2017-06-20T05:48:07.361Z,52.80
2017-06-20T05:50:35.653Z,53.00
2017-06-20T05:53:03.962Z,53.20
2017-06-20T05:55:32.253Z,53.30
2017-06-20T05:58:00.566Z,53.30
2017-06-20T06:00:28.861Z,53.30
2017-06-20T06:02:57.168Z,52.90
2017-06-20T06:05:25.460Z,52.80
2017-06-20T06:07:54.079Z,52.30
2017-06-20T06:10:22.368Z,51.90
2017-06-20T06:12:50.653Z,51.70
2017-06-20T06:15:18.970Z,51.40
2017-06-20T06:17:47.260Z,51.20
2017-06-20T06:20:15.574Z,51.10
2017-06-20T06:22:43.882Z,50.80
2017-06-20T06:25:12.202Z,50.40
2017-06-20T06:27:40.510Z,50.10
2017-06-20T06:30:08.845Z,49.90
2017-06-20T06:32:37.139Z,49.40
2017-06-20T06:35:05.424Z,48.90
2017-06-20T06:37:33.740Z,48.50
2017-06-20T06:40:02.025Z,48.30
2017-06-20T06:42:30.340Z,48.80
2017-06-20T06:44:58.633Z,48.80
2017-06-20T06:47:26.941Z,48.00
2017-06-20T06:49:55.232Z,47.30
2017-06-20T06:52:23.561Z,47.70
2017-06-20T06:54:51.845Z,47.20
2017-06-20T06:57:20.142Z,46.90
2017-06-20T06:59:48.457Z,46.20
2017-06-20T07:02:16.750Z,45.90
2017-06-20T07:04:45.065Z,46.10
2017-06-20T07:07:13.386Z,46.30
2017-06-20T07:09:41.714Z,45.60
2017-06-20T07:12:10.010Z,46.00
2017-06-20T07:14:38.330Z,45.60
2017-06-20T07:17:06.618Z,44.80
2017-06-20T07:19:34.937Z,43.30
2017-06-20T07:22:03.221Z,43.40
2017-06-20T07:24:31.510Z,43.40
2017-06-20T07:26:59.824Z,43.50
2017-06-20T07:29:28.122Z,43.00
2017-06-20T07:31:56.432Z,42.50
2017-06-20T07:34:24.721Z,42.30
2017-06-20T07:36:53.037Z,41.90
2017-06-20T07:39:21.336Z,40.80
2017-06-20T07:41:49.657Z,39.80
2017-06-20T07:44:17.941Z,39.60
2017-06-20T07:46:46.233Z,38.40
2017-06-20T07:49:14.557Z,39.00
2017-06-20T07:51:42.866Z,38.30
2017-06-20T07:54:11.234Z,37.80
2017-06-20T07:56:39.516Z,38.60
2017-06-20T07:59:07.824Z,38.20
2017-06-20T08:01:36.109Z,36.90
2017-06-20T08:04:04.416Z,36.00
2017-06-20T08:06:32.703Z,36.00
2017-06-20T08:09:00.988Z,35.50
2017-06-20T08:11:29.310Z,35.10
2017-06-20T08:13:57.596Z,34.80
2017-06-20T08:16:25.904Z,34.60
2017-06-20T08:18:54.260Z,34.50
2017-06-20T08:21:28.224Z,33.70
2017-06-20T08:23:56.512Z,34.00
2017-06-20T08:26:24.829Z,34.20
2017-06-20T08:28:53.109Z,33.60
2017-06-20T08:31:21.397Z,33.80
2017-06-20T08:33:49.701Z,32.80
2017-06-20T08:36:17.989Z,32.60
2017-06-20T08:38:46.310Z,31.50
2017-06-20T08:41:14.607Z,31.30
2017-06-20T08:43:42.926Z,31.20
2017-06-20T08:46:11.232Z,30.60
2017-06-20T08:48:39.547Z,30.10
2017-06-20T08:51:07.833Z,30.00
2017-06-20T08:53:36.125Z,30.20
2017-06-20T08:56:04.433Z,30.40
2017-06-20T08:58:32.716Z,31.10
2017-06-20T09:01:01.021Z,30.90
2017-06-20T09:03:29.306Z,30.90
2017-06-20T09:05:57.617Z,30.30
2017-06-20T09:08:25.904Z,30.70
2017-06-20T09:10:54.216Z,30.80
2017-06-20T09:13:22.501Z,30.10
2017-06-20T09:15:50.795Z,29.80
2017-06-20T09:18:19.104Z,30.00
2017-06-20T09:20:47.393Z,29.70
2017-06-20T09:23:15.705Z,29.70
2017-06-20T09:25:44.004Z,29.70
2017-06-20T09:28:12.317Z,29.40
2017-06-20T09:30:40.605Z,29.10
2017-06-20T09:33:08.933Z,29.20
2017-06-20T09:35:37.225Z,29.40
2017-06-20T09:38:05.517Z,29.70
2017-06-20T09:40:33.829Z,29.20
2017-06-20T09:43:01.358Z,29.20
2017-06-20T09:45:29.674Z,28.70
2017-06-20T09:47:57.969Z,28.70
2017-06-20T09:50:26.286Z,29.00
2017-06-20T09:52:54.577Z,28.50
2017-06-20T09:55:22.885Z,28.80
2017-06-20T09:57:51.182Z,28.50
2017-06-20T10:00:19.500Z,28.80
2017-06-20T10:02:47.785Z,28.30
2017-06-20T10:05:16.076Z,28.00
2017-06-20T10:07:44.392Z,27.90
2017-06-20T10:10:12.684Z,28.30
2017-06-20T10:12:41.013Z,27.80
2017-06-20T10:15:09.300Z,27.60
2017-06-20T10:17:37.616Z,27.80
2017-06-20T10:20:05.904Z,28.00
2017-06-20T10:22:34.217Z,27.20
2017-06-20T10:25:02.506Z,27.00
2017-06-20T10:27:30.841Z,27.20
2017-06-20T10:29:59.133Z,26.90
2017-06-20T10:32:27.425Z,26.70
2017-06-20T10:34:55.734Z,26.80
2017-06-20T10:37:24.024Z,27.00
2017-06-20T10:39:52.339Z,27.30
2017-06-20T10:42:20.629Z,27.40
2017-06-20T10:44:48.942Z,27.60
2017-06-20T10:47:17.237Z,26.60
2017-06-20T10:49:45.559Z,27.10
2017-06-20T10:52:13.858Z,27.20
2017-06-20T10:54:42.228Z,27.00
2017-06-20T10:57:10.516Z,26.50
2017-06-20T10:59:38.817Z,27.00
2017-06-20T11:02:07.132Z,26.60
2017-06-20T11:04:35.430Z,27.00
2017-06-20T11:07:03.733Z,27.10
2017-06-20T11:09:32.023Z,27.40
2017-06-20T11:12:00.336Z,27.60
2017-06-20T11:14:28.620Z,27.30
2017-06-20T11:16:56.930Z,26.90
2017-06-20T11:19:25.221Z,27.00
2017-06-20T11:21:53.562Z,26.60
2017-06-20T11:24:21.080Z,26.60
2017-06-20T11:26:49.384Z,26.60
2017-06-20T11:29:17.692Z,25.90
2017-06-20T11:31:45.985Z,25.70
2017-06-20T11:34:14.336Z,26.30
2017-06-20T11:36:42.644Z,26.30
2017-06-20T11:39:10.986Z,26.60
2017-06-20T11:41:39.276Z,26.70
2017-06-20T11:44:07.587Z,26.50
2017-06-20T11:46:35.884Z,27.30
2017-06-20T11:49:04.192Z,27.40
2017-06-20T11:51:32.485Z,26.90
2017-06-20T11:54:00.773Z,26.00
2017-06-20T11:56:29.080Z,25.00
2017-06-20T11:58:57.374Z,25.50
2017-06-20T12:01:25.691Z,25.80
2017-06-20T12:03:53.984Z,25.90
2017-06-20T12:06:22.301Z,25.60
2017-06-20T12:08:50.589Z,25.10
2017-06-20T12:11:18.900Z,24.90
2017-06-20T12:13:47.201Z,25.30
2017-06-20T12:16:15.524Z,25.80
2017-06-20T12:18:43.824Z,25.50
2017-06-20T12:21:12.133Z,25.00
2017-06-20T12:23:40.450Z,24.90
2017-06-20T12:26:08.744Z,24.80
2017-06-20T12:28:37.048Z,24.80
2017-06-20T12:31:05.336Z,25.00
2017-06-20T12:33:33.648Z,24.60
2017-06-20T12:36:01.942Z,24.80
2017-06-20T12:38:30.257Z,25.00
2017-06-20T12:40:58.551Z,24.70
2017-06-20T12:43:26.873Z,24.90
2017-06-20T12:45:55.165Z,25.20
2017-06-20T12:48:23.453Z,25.60
2017-06-20T12:50:51.769Z,25.30
2017-06-20T12:53:20.058Z,25.10
2017-06-20T12:55:48.368Z,25.20
2017-06-20T12:58:16.655Z,25.20
2017-06-20T13:00:44.977Z,25.30
2017-06-20T13:03:13.267Z,24.90
2017-06-20T13:05:41.587Z,25.30
2017-06-20T13:08:09.886Z,25.50
2017-06-20T13:10:38.201Z,25.70
2017-06-20T13:13:06.495Z,25.60
2017-06-20T13:15:34.824Z,26.10
2017-06-20T13:18:03.137Z,25.40
2017-06-20T13:20:31.425Z,25.80
2017-06-20T13:22:59.744Z,25.90
2017-06-20T13:25:28.033Z,25.90
2017-06-20T13:27:56.390Z,25.60
2017-06-20T13:30:24.716Z,25.80
2017-06-20T13:32:52.262Z,25.80
2017-06-20T13:35:20.556Z,26.10
2017-06-20T13:37:48.897Z,26.20
2017-06-20T13:40:17.201Z,25.70
2017-06-20T13:42:45.507Z,26.00
2017-06-20T13:45:13.837Z,25.60
2017-06-20T13:47:42.153Z,26.10
2017-06-20T13:50:10.475Z,26.00
2017-06-20T13:52:38.773Z,26.20
2017-06-20T13:55:07.088Z,25.80
2017-06-20T13:57:35.489Z,26.10
2017-06-20T14:00:03.816Z,26.00
2017-06-20T14:02:32.121Z,25.90
2017-06-20T14:05:00.453Z,25.80
2017-06-20T14:07:28.757Z,25.70
2017-06-20T14:09:57.090Z,25.30
2017-06-20T14:12:25.380Z,25.00
2017-06-20T14:14:53.670Z,25.20
2017-06-20T14:17:22.001Z,25.60
2017-06-20T14:19:50.289Z,25.50
2017-06-20T14:22:18.609Z,26.10
2017-06-20T14:24:46.893Z,25.80
2017-06-20T14:27:15.220Z,25.50
2017-06-20T14:29:43.524Z,25.20
2017-06-20T14:32:11.837Z,25.20
2017-06-20T14:34:40.131Z,25.10
2017-06-20T14:37:08.454Z,25.70
2017-06-20T14:39:36.762Z,25.40
2017-06-20T14:42:04.291Z,25.40
2017-06-20T14:44:32.611Z,25.60
2017-06-20T14:47:00.913Z,26.00
2017-06-20T14:49:29.242Z,26.30
2017-06-20T14:51:57.542Z,25.80
2017-06-20T14:54:25.860Z,25.90
2017-06-20T14:56:54.165Z,25.80
2017-06-20T14:59:22.488Z,26.30
2017-06-20T15:01:50.784Z,26.60
2017-06-20T15:04:19.080Z,26.90
2017-06-20T15:06:47.398Z,27.10
2017-06-20T15:09:15.701Z,27.20
2017-06-20T15:11:44.038Z,27.30
2017-06-20T15:14:12.349Z,27.50
2017-06-20T15:16:40.677Z,28.20
2017-06-20T15:19:09.012Z,27.90
2017-06-20T15:21:37.341Z,27.50
2017-06-20T15:24:05.636Z,27.90
2017-06-20T15:26:33.933Z,27.80
2017-06-20T15:29:02.249Z,27.60
2017-06-20T15:31:30.548Z,27.50
2017-06-20T15:33:58.873Z,27.50
2017-06-20T15:36:27.178Z,27.80
2017-06-20T15:38:55.497Z,28.00
2017-06-20T15:41:23.794Z,28.10
2017-06-20T15:43:52.120Z,28.10
2017-06-20T15:46:20.416Z,28.20
2017-06-20T15:48:48.710Z,28.10
2017-06-20T15:51:17.024Z,28.30
2017-06-20T15:53:45.334Z,28.30
2017-06-20T15:56:13.660Z,27.60
2017-06-20T15:58:41.973Z,28.10
2017-06-20T16:01:10.289Z,28.00
2017-06-20T16:03:38.585Z,28.20
2017-06-20T16:06:06.909Z,28.00
2017-06-20T16:08:35.213Z,27.90
2017-06-20T16:11:03.512Z,28.20
2017-06-20T16:13:31.830Z,28.40
2017-06-20T16:16:00.125Z,28.20
2017-06-20T16:18:28.441Z,27.20
2017-06-20T16:20:56.736Z,27.70
2017-06-20T16:23:25.045Z,28.00
2017-06-20T16:25:53.337Z,27.90
2017-06-20T16:28:21.670Z,27.50
2017-06-20T16:30:49.960Z,27.80
2017-06-20T16:33:18.276Z,28.20
2017-06-20T16:35:46.593Z,28.30
2017-06-20T16:38:14.895Z,27.90
2017-06-20T16:40:43.292Z,28.00
2017-06-20T16:43:11.617Z,28.20
2017-06-20T16:45:39.956Z,28.30
2017-06-20T16:48:08.252Z,28.10
2017-06-20T16:50:36.571Z,28.10
2017-06-20T16:53:04.872Z,28.70
2017-06-20T16:55:33.165Z,28.20
2017-06-20T16:58:01.478Z,28.40
2017-06-20T17:00:29.784Z,28.00
2017-06-20T17:02:58.105Z,28.00
2017-06-20T17:05:26.396Z,28.50
2017-06-20T17:07:54.712Z,27.70
2017-06-20T17:10:23.009Z,27.10
2017-06-20T17:12:51.328Z,26.40
2017-06-20T17:15:19.617Z,26.10
2017-06-20T17:17:47.912Z,26.10
2017-06-20T17:20:15.474Z,26.10
2017-06-20T17:22:43.781Z,25.20
2017-06-20T17:25:12.121Z,25.00
2017-06-20T17:27:40.424Z,24.70
2017-06-20T17:30:08.746Z,24.50
2017-06-20T17:32:37.036Z,24.30
2017-06-20T17:35:05.358Z,23.90
2017-06-20T17:37:32.889Z,23.90
2017-06-20T17:40:01.196Z,25.00
2017-06-20T17:42:29.540Z,24.60
2017-06-20T17:44:57.838Z,25.30
2017-06-20T17:47:26.157Z,25.60
2017-06-20T17:49:54.453Z,26.30
2017-06-20T17:52:22.769Z,26.10
2017-06-20T17:54:51.062Z,25.80
2017-06-20T17:57:19.384Z,25.30
2017-06-20T17:59:47.684Z,25.70
2017-06-20T18:02:15.986Z,25.80
2017-06-20T18:04:44.322Z,26.10
2017-06-20T18:07:12.637Z,26.30
2017-06-20T18:09:40.965Z,26.80
2017-06-20T18:12:09.265Z,27.30
2017-06-20T18:14:37.577Z,27.80
2017-06-20T18:17:05.873Z,28.60
2017-06-20T18:19:34.203Z,29.70
2017-06-20T18:22:02.501Z,30.50
2017-06-20T18:24:30.800Z,31.00
2017-06-20T18:26:59.117Z,30.60
2017-06-20T18:29:27.412Z,30.60
2017-06-20T18:31:55.728Z,31.20
2017-06-20T18:34:24.025Z,31.50
2017-06-20T18:36:52.356Z,31.50
2017-06-20T18:39:20.654Z,31.90
2017-06-20T18:41:48.994Z,32.30
2017-06-20T18:44:17.289Z,33.00
2017-06-20T18:46:45.605Z,33.60
2017-06-20T18:49:13.943Z,33.90
2017-06-20T18:51:42.254Z,34.30
2017-06-20T18:54:10.577Z,35.10
2017-06-20T18:56:38.888Z,35.60
2017-06-20T18:59:07.205Z,35.80
2017-06-20T19:01:35.497Z,36.20
2017-06-20T19:04:03.153Z,36.20
2017-06-20T19:06:31.487Z,37.00
2017-06-20T19:08:59.816Z,37.40
2017-06-20T19:11:28.134Z,37.70
2017-06-20T19:13:56.448Z,38.30
2017-06-20T19:16:24.777Z,38.70
2017-06-20T19:18:53.076Z,38.80
2017-06-20T19:21:20.629Z,38.70
2017-06-20T19:23:48.935Z,39.70
2017-06-20T19:26:17.261Z,40.20
2017-06-20T19:28:45.577Z,40.50
2017-06-20T19:31:13.112Z,40.50
2017-06-20T19:33:41.454Z,41.20
2017-06-20T19:36:09.760Z,41.60
2017-06-20T19:38:38.079Z,41.90
2017-06-20T19:41:06.373Z,42.30
2017-06-20T19:43:34.688Z,42.70
2017-06-20T19:46:02.984Z,43.10
2017-06-20T19:48:31.300Z,43.50
2017-06-20T19:50:59.600Z,43.90
2017-06-20T19:53:27.938Z,44.50
2017-06-20T19:55:56.228Z,44.90
2017-06-20T19:58:24.525Z,45.10
2017-06-20T20:00:52.842Z,45.50
2017-06-20T20:03:21.151Z,45.90
2017-06-20T20:05:49.465Z,46.30
2017-06-20T20:08:17.761Z,46.70
2017-06-20T20:10:46.086Z,47.10
2017-06-20T20:13:14.384Z,47.40
2017-06-20T20:15:42.683Z,47.80
2017-06-20T20:18:11.013Z,48.10
2017-06-20T20:20:39.313Z,48.40
2017-06-20T20:23:07.629Z,48.80
2017-06-20T20:25:35.925Z,49.10
2017-06-20T20:28:04.252Z,49.50
2017-06-20T20:30:32.548Z,50.00
2017-06-20T20:33:00.852Z,50.10
2017-06-20T20:35:29.177Z,50.40
2017-06-20T20:37:57.478Z,50.70
2017-06-20T20:40:25.808Z,51.10
2017-06-20T20:42:54.101Z,51.40
2017-06-20T20:45:22.425Z,51.70
2017-06-20T20:47:50.716Z,52.00
2017-06-20T20:50:19.015Z,52.50
2017-06-20T20:52:47.330Z,52.70
2017-06-20T20:55:15.647Z,52.90
2017-06-20T20:57:43.992Z,53.20
2017-06-20T21:00:12.301Z,53.50
2017-06-20T21:02:40.666Z,54.00
2017-06-20T21:05:08.958Z,54.30
2017-06-20T21:07:37.249Z,54.60
2017-06-20T21:10:05.577Z,54.70
2017-06-20T21:12:33.877Z,55.20
2017-06-20T21:15:02.189Z,55.50
2017-06-20T21:17:30.527Z,55.70
2017-06-20T21:19:58.852Z,56.30
2017-06-20T21:22:27.152Z,56.60
2017-06-20T21:24:55.450Z,56.80
2017-06-20T21:27:23.765Z,57.40
2017-06-20T21:29:51.297Z,57.30
2017-06-20T21:32:19.612Z,58.70
2017-06-20T21:34:47.908Z,58.30
2017-06-20T21:37:16.261Z,58.60
2017-06-20T21:39:44.560Z,59.00
2017-06-20T21:42:12.861Z,59.30
2017-06-20T21:44:41.194Z,59.60
2017-06-20T21:47:09.532Z,59.90
2017-06-20T21:49:37.840Z,60.20
2017-06-20T21:52:06.133Z,60.40
2017-06-20T21:54:34.469Z,60.60
2017-06-20T21:57:02.775Z,60.90
2017-06-20T21:59:31.065Z,61.10
2017-06-20T22:01:59.390Z,61.70
2017-06-20T22:04:27.684Z,61.80
2017-06-20T22:06:56.001Z,62.30
2017-06-20T22:09:24.300Z,62.50
2017-06-20T22:11:52.616Z,62.80
2017-06-20T22:14:20.917Z,63.30
2017-06-20T22:16:49.208Z,63.40
2017-06-20T22:19:17.525Z,63.60
2017-06-20T22:21:45.849Z,64.10
2017-06-20T22:24:14.197Z,64.40
2017-06-20T22:26:42.512Z,64.70
2017-06-20T22:29:10.837Z,64.60
2017-06-20T22:31:39.140Z,64.80
2017-06-20T22:34:07.457Z,65.00
2017-06-20T22:36:35.748Z,65.40
2017-06-20T22:39:04.041Z,65.70
2017-06-20T22:41:32.361Z,65.90
2017-06-20T22:44:00.661Z,66.10
2017-06-20T22:46:28.980Z,66.40
2017-06-20T22:48:57.276Z,66.60
2017-06-20T22:51:25.588Z,67.00
2017-06-20T22:53:53.905Z,67.00
2017-06-20T22:56:22.283Z,67.20
2017-06-20T22:58:50.577Z,67.30
2017-06-20T23:01:18.877Z,67.70
2017-06-20T23:03:47.189Z,67.70
2017-06-20T23:06:15.490Z,68.10
2017-06-20T23:08:43.117Z,68.00
2017-06-20T23:11:11.458Z,68.70
2017-06-20T23:13:39.780Z,68.80
2017-06-20T23:16:08.089Z,68.90
2017-06-20T23:18:36.413Z,69.20
2017-06-20T23:21:04.708Z,69.60
2017-06-20T23:23:33.008Z,69.90
2017-06-20T23:26:01.332Z,70.00
2017-06-20T23:28:29.641Z,70.20
2017-06-20T23:30:57.969Z,71.00
2017-06-20T23:33:26.260Z,70.50
2017-06-20T23:35:54.577Z,70.50
2017-06-20T23:38:22.873Z,70.70
2017-06-20T23:40:51.189Z,71.00
2017-06-20T23:43:19.483Z,71.20
2017-06-20T23:45:47.781Z,71.50
2017-06-20T23:48:16.109Z,71.90
2017-06-20T23:50:44.440Z,72.00
2017-06-20T23:53:12.781Z,71.80
2017-06-20T23:55:41.104Z,72.00
2017-06-20T23:58:09.428Z,72.20
